Terminal Aerodrome Forecast
Issued by NWS Green Bay, WI

Home | Current Version | Previous Version | Graphics & Text | Print | Product List | Glossary On
Versions: 1 2 3 4 5 6 7 8 9 10 11 12 13 14 15 16 17 18 19 20 21 22 23 24 25 26
000
FTUS43 KGRB 301308 AAA
TAFGRB
TAF AMD
KGRB 301308Z 3013/3112 28009KT 3SM BR OVC003
      TEMPO 3013/3015 6SM BR SCT003 BKN150
     FM301500 25006KT P6SM SCT035 BKN140
     FM301800 26009KT P6SM VCSH SCT035 BKN100
     FM302100 29008KT P6SM SCT040 BKN150
     FM310300 02006KT P6SM SCT200
     FM310800 36004KT 3SM BR SCT010=

USA.gov is the U.S. government's official web portal to all federal, state and local government web resources and services.